Newtonhill, United Kingdom
Current Conditions -  °F | °C
As of 1:50 AM on Sunday 21 Dec 2014 (Local Time) from EGPD Reporting Station
Light Rain Light Rain  
Wind Chill: 38°   Ceiling: Unl
Heat Index: 43°   Visibility: 6mi
Dew Point: 39°   Wind: 8mph
Humidity: 87%   Direction: 200°SSW
Pressure: 30"   Gusts: NA
Location:  57.03°N, 2.15°W
Report Text: EGPD 210150Z 20007KT 9999 -RA SCT020 SCT032 06/04 Q1016 RERA
Loading
Personal Weather Stations






























Interactive Weather Map New forecast layout! Learn more

10-Day Weather Forecast

Advertisements
Track Severe Weather on mobile